This is the latest recevied weather packets stored in our database for station/object OE5OVL-13. If no packets are shown the sender has not sent any weather packets the latest 10 day(s).
| Time | Temp. | Humidity | Pressure | Rain* | Wind** | Luminosity | Snow |
|---|---|---|---|---|---|---|---|
| 1777955004 | 13.89° C | 69% | 721.8 hPa | 0 mm | - | - | - |
| 1777954092 | 13.89° C | 69% | 721.9 hPa | 0 mm | - | - | - |
| 1777953180 | 13.89° C | 68% | 721.9 hPa | 0 mm | - | - | - |
| 1777952269 | 13.89° C | 68% | 721.9 hPa | 0 mm | - | - | - |
| 1777951357 | 13.89° C | 68% | 721.8 hPa | 0 mm | - | - | - |
| 1777950445 | 13.89° C | 67% | 721.9 hPa | 0 mm | - | - | - |
| 1777949533 | 14.44° C | 66% | 722.2 hPa | 0 mm | - | - | - |
| 1777948621 | 14.44° C | 64% | 722.6 hPa | 0 mm | - | - | - |
| 1777947712 | 15° C | 62% | 722.9 hPa | 0 mm | - | - | - |
| 1777946797 | 15° C | 62% | 723.1 hPa | 0 mm | - | - | - |
| 1777945885 | 14.44° C | 62% | 722.7 hPa | 0 mm | - | - | - |
| 1777944983 | 15° C | 61% | 723 hPa | 0 mm | - | - | - |
| 1777944061 | 15.56° C | 59% | 723.7 hPa | 0 mm | - | - | - |
| 1777943149 | 16.11° C | 57% | 724 hPa | 0 mm | - | - | - |
| 1777942237 | 16.11° C | 59% | 724 hPa | 0 mm | - | - | - |
| 1777941325 | 16.11° C | 61% | 724 hPa | 0 mm | - | - | - |
| 1777940413 | 16.11° C | 59% | 724.5 hPa | 0 mm | - | - | - |
| 1777939501 | 16.11° C | 58% | 724.5 hPa | 0 mm | - | - | - |
| 1777938589 | 16.11° C | 58% | 724.4 hPa | 0 mm | - | - | - |
| 1777936766 | 16.67° C | 56% | 724.7 hPa | 0 mm | - | - | - |
| 1777935862 | 16.67° C | 54% | 725 hPa | 0 mm | - | - | - |
| 1777934952 | 16.67° C | 54% | 725.2 hPa | 0 mm | - | - | - |
| 1777934030 | 17.22° C | 54% | 725.6 hPa | 0 mm | - | - | - |
| 1777933122 | 17.22° C | 54% | 725.3 hPa | 0 mm | - | - | - |
| 1777932206 | 17.78° C | 51% | 726.1 hPa | 0 mm | - | - | - |
* Rain latest hour (hover to see other rain measurements)
** Current wind speed in m/s (hover to see current wind gust speed)